Time;durP1;ratioP1;P1;durP2;ratioP2;P2;SDS_P1;SDS_P2;PMS_P1;PMS_P2;Temp;Humidity;BMP_temperature;BMP_pressure;BME280_temperature;BME280_humidity;BME280_pressure;Samples;Min_cycle;Max_cycle;Signal;HPM_P1;HPM_P2
2024/01/18 00:00:32;;;;;;;41.30;28.63;;;;;;;5.31;96.68;95334.13;4933919;29;20566;-72
2024/01/18 00:02:57;;;;;;;26.80;22.98;;;;;;;5.43;97.01;95365.78;4925333;29;20032;-72
2024/01/18 00:05:22;;;;;;;45.90;29.42;;;;;;;5.47;97.35;95356.94;4925325;29;20044;-72
2024/01/18 00:07:48;;;;;;;58.72;34.97;;;;;;;5.46;96.73;95363.31;4940287;29;20025;-71
2024/01/18 00:10:13;;;;;;;26.52;22.35;;;;;;;5.46;97.18;95371.34;4933063;28;20114;-71
2024/01/18 00:12:39;;;;;;;37.15;25.33;;;;;;;5.44;96.71;95354.81;4935819;29;20107;-71
2024/01/18 00:15:05;;;;;;;31.38;22.40;;;;;;;5.47;96.88;95364.94;4936881;29;20068;-71
2024/01/18 00:17:31;;;;;;;40.28;27.65;;;;;;;5.58;96.93;95373.63;4926589;29;20038;-71
2024/01/18 00:19:56;;;;;;;36.10;23.45;;;;;;;5.41;97.37;95355.38;4936895;29;20040;-71
2024/01/18 00:22:22;;;;;;;114.60;36.80;;;;;;;5.63;97.96;95394.13;4936884;29;20030;-71
2024/01/18 00:24:47;;;;;;;483.92;69.07;;;;;;;5.47;97.85;95391.63;4936999;29;20114;-71
2024/01/18 00:27:12;;;;;;;614.60;62.08;;;;;;;5.33;98.81;95396.00;4936854;29;20027;-71
2024/01/18 00:29:38;;;;;;;496.20;65.15;;;;;;;5.21;97.72;95398.25;4935540;29;20047;-71
2024/01/18 00:32:04;;;;;;;493.65;69.22;;;;;;;5.18;98.46;95409.47;4936554;29;20047;-71
2024/01/18 00:34:29;;;;;;;578.22;84.78;;;;;;;5.13;97.69;95398.84;4935592;29;20039;-71
2024/01/18 00:36:54;;;;;;;659.80;82.78;;;;;;;5.01;98.03;95406.41;4936405;29;20110;-70
2024/01/18 00:39:21;;;;;;;634.42;76.78;;;;;;;5.03;98.10;95409.59;4936279;29;20047;-71
2024/01/18 00:41:47;;;;;;;718.75;98.95;;;;;;;4.94;97.83;95402.44;4935255;29;20047;-71
2024/01/18 00:44:12;;;;;;;747.15;91.40;;;;;;;5.07;98.28;95418.63;4916134;29;20048;-71
2024/01/18 00:46:38;;;;;;;449.55;72.45;;;;;;;4.99;97.48;95421.91;4935835;29;20042;-72
2024/01/18 00:49:04;;;;;;;419.77;74.18;;;;;;;5.00;97.51;95439.47;4934730;29;20499;-71
2024/01/18 00:51:30;;;;;;;276.25;59.42;;;;;;;4.87;97.30;95410.78;4935082;29;20085;-71
2024/01/18 00:53:55;;;;;;;108.22;40.67;;;;;;;4.84;97.11;95419.31;4936339;29;20495;-71
2024/01/18 00:56:20;;;;;;;85.80;38.17;;;;;;;5.05;97.54;95446.63;4933491;29;20056;-73
2024/01/18 00:58:47;;;;;;;132.82;44.88;;;;;;;5.08;97.26;95452.22;4927281;29;20396;-72
2024/01/18 01:01:12;;;;;;;235.45;58.25;;;;;;;5.00;96.78;95454.66;4926294;29;20119;-72
2024/01/18 01:03:38;;;;;;;92.60;39.08;;;;;;;5.04;97.10;95461.84;4928611;29;20051;-71
2024/01/18 01:06:03;;;;;;;449.75;72.00;;;;;;;4.99;97.10;95459.22;4933429;29;20032;-71
2024/01/18 01:08:29;;;;;;;177.95;52.90;;;;;;;5.06;96.82;95470.38;4934646;29;20063;-73
2024/01/18 01:10:54;;;;;;;208.25;53.30;;;;;;;5.08;96.67;95475.44;4937194;29;20034;-73
2024/01/18 01:13:20;;;;;;;223.80;57.15;;;;;;;5.03;97.19;95475.47;4934990;29;20038;-72
2024/01/18 01:15:46;;;;;;;201.15;55.58;;;;;;;5.02;97.24;95480.00;4936088;29;20035;-72
2024/01/18 01:18:11;;;;;;;99.57;41.30;;;;;;;4.93;97.00;95481.66;4936095;29;20535;-73
2024/01/18 01:20:37;;;;;;;98.90;40.72;;;;;;;4.87;97.02;95472.09;4936035;29;20032;-72
2024/01/18 01:23:03;;;;;;;66.93;33.72;;;;;;;4.97;96.98;95506.69;4935849;29;20448;-72
2024/01/18 01:25:28;;;;;;;62.03;31.70;;;;;;;4.93;96.89;95496.84;4935088;29;20027;-72
2024/01/18 01:27:54;;;;;;;69.72;34.60;;;;;;;4.99;96.88;95493.09;4919557;29;20407;-71
2024/01/18 01:30:19;;;;;;;88.80;41.35;;;;;;;4.93;97.11;95497.63;4931062;29;20024;-71
2024/01/18 01:32:45;;;;;;;120.13;45.03;;;;;;;4.96;96.21;95496.31;4935745;29;20127;-72
2024/01/18 01:35:11;;;;;;;139.15;40.85;;;;;;;4.98;96.81;95508.28;4935632;29;20023;-71
2024/01/18 01:37:36;;;;;;;109.82;38.30;;;;;;;4.84;96.58;95477.97;4917641;29;20047;-70
2024/01/18 01:40:01;;;;;;;80.30;36.88;;;;;;;4.99;96.57;95501.91;4912979;29;20028;-71
2024/01/18 01:42:27;;;;;;;98.35;41.45;;;;;;;5.01;95.97;95499.75;4933419;29;20505;-71
2024/01/18 01:44:54;;;;;;;106.13;43.33;;;;;;;5.03;95.99;95502.94;4935353;29;20024;-71
2024/01/18 01:47:19;;;;;;;75.00;36.03;;;;;;;5.05;96.56;95511.44;4942825;29;20034;-71
2024/01/18 01:49:45;;;;;;;457.60;77.72;;;;;;;5.05;95.79;95527.44;4928752;29;20071;-72
2024/01/18 01:52:11;;;;;;;117.18;44.72;;;;;;;5.02;95.53;95520.00;4916207;29;20044;-71
2024/01/18 01:54:36;;;;;;;609.33;101.88;;;;;;;4.93;95.62;95518.97;4948699;28;20063;-70
2024/01/18 01:57:03;;;;;;;355.25;59.83;;;;;;;4.97;96.45;95519.25;4934150;29;20076;-71
2024/01/18 01:59:29;;;;;;;699.17;73.80;;;;;;;4.84;95.69;95507.28;4916533;29;20020;-73
2024/01/18 02:01:54;;;;;;;307.23;42.70;;;;;;;4.98;95.66;95508.28;4934321;29;20047;-71
2024/01/18 02:04:20;;;;;;;866.35;81.50;;;;;;;5.00;96.05;95519.47;4927445;29;20026;-70
2024/01/18 02:06:46;;;;;;;694.30;72.75;;;;;;;4.95;95.61;95506.16;4934188;29;20103;-71
2024/01/18 02:09:11;;;;;;;511.30;62.92;;;;;;;4.93;95.35;95510.97;4933517;29;20111;-71
2024/01/18 02:11:37;;;;;;;683.58;65.97;;;;;;;4.91;95.25;95505.13;4927957;29;20403;-71
2024/01/18 02:14:03;;;;;;;288.52;53.83;;;;;;;4.89;96.05;95510.75;4937409;29;20038;-73
2024/01/18 02:16:30;;;;;;;423.00;60.78;;;;;;;4.88;95.95;95500.34;4931816;29;20621;-72
2024/01/18 02:18:55;;;;;;;439.48;57.63;;;;;;;4.78;95.70;95485.19;4933390;29;20066;-72
2024/01/18 02:21:20;;;;;;;279.75;45.38;;;;;;;4.79;95.53;95488.66;4934846;29;20067;-72
2024/01/18 02:23:48;;;;;;;211.40;44.70;;;;;;;4.84;95.73;95504.63;4917824;29;20399;-73
2024/01/18 02:26:14;;;;;;;105.80;32.88;;;;;;;4.83;95.22;95508.38;4901856;29;20036;-73
2024/01/18 02:28:58;;;;;;;146.20;40.33;;;;;;;4.65;95.73;95500.97;4928698;29;20038;-73
2024/01/18 02:31:23;;;;;;;70.03;30.38;;;;;;;4.77;95.88;95520.13;4915330;29;20048;-73
2024/01/18 02:33:49;;;;;;;74.07;30.40;;;;;;;4.74;95.58;95526.78;4914449;29;20032;-73
2024/01/18 02:36:15;;;;;;;97.30;35.28;;;;;;;4.65;96.23;95512.44;4914038;29;20562;-73
2024/01/18 02:38:41;;;;;;;70.57;30.45;;;;;;;4.68;96.04;95521.75;4933177;29;20032;-73
2024/01/18 02:41:06;;;;;;;271.90;53.53;;;;;;;4.68;95.66;95516.44;4914643;29;20044;-72
2024/01/18 02:43:32;;;;;;;137.43;39.95;;;;;;;4.60;95.93;95531.09;4931931;29;20086;-72
2024/01/18 02:45:58;;;;;;;87.68;34.50;;;;;;;4.58;96.21;95535.91;4933443;29;20506;-71
2024/01/18 02:48:23;;;;;;;54.22;28.67;;;;;;;4.52;96.03;95544.19;4929542;29;20032;-72
2024/01/18 02:50:48;;;;;;;51.05;28.23;;;;;;;4.47;96.17;95536.22;4933334;29;20114;-72
2024/01/18 02:53:14;;;;;;;47.78;25.95;;;;;;;4.49;95.60;95555.41;4934443;29;20036;-72
2024/01/18 02:55:39;;;;;;;54.58;27.98;;;;;;;4.37;95.93;95546.91;4933223;29;20491;-71
2024/01/18 02:58:05;;;;;;;78.93;34.13;;;;;;;4.41;96.05;95547.97;4934231;29;20122;-72
2024/01/18 03:00:30;;;;;;;56.30;28.35;;;;;;;4.24;95.97;95526.97;4934508;29;20036;-72
2024/01/18 03:02:55;;;;;;;57.33;28.80;;;;;;;4.16;95.70;95520.31;4910480;29;20467;-72
2024/01/18 03:05:21;;;;;;;80.85;32.00;;;;;;;4.19;96.12;95546.41;4933293;29;20036;-71
2024/01/18 03:07:46;;;;;;;28.88;20.15;;;;;;;4.09;95.82;95556.25;4936351;29;20032;-72
2024/01/18 03:10:11;;;;;;;55.60;28.67;;;;;;;4.02;95.63;95545.91;4936825;29;20048;-72
2024/01/18 03:12:37;;;;;;;39.25;23.98;;;;;;;3.96;95.71;95546.97;4936934;29;20078;-72
2024/01/18 03:15:10;;;;;;;30.35;21.10;;;;;;;3.99;95.63;95557.06;4929732;29;20408;-72
2024/01/18 03:17:35;;;;;;;31.05;21.33;;;;;;;3.83;95.75;95542.19;4936918;29;20044;-71
2024/01/18 03:20:05;;;;;;;25.52;18.77;;;;;;;3.91;95.74;95568.28;4931883;29;20024;-71
2024/01/18 03:22:30;;;;;;;24.80;19.10;;;;;;;3.95;95.12;95566.66;4937988;29;20043;-72
2024/01/18 03:24:56;;;;;;;32.83;21.80;;;;;;;3.83;94.82;95552.81;4938098;29;20098;-72
2024/01/18 03:27:21;;;;;;;27.65;20.15;;;;;;;3.92;94.89;95567.19;4936504;29;20122;-72
2024/01/18 03:29:46;;;;;;;29.08;21.63;;;;;;;3.73;95.19;95550.19;4901776;29;20039;-72
2024/01/18 03:32:12;;;;;;;31.05;23.17;;;;;;;3.87;94.97;95572.53;4933669;29;20502;-72
2024/01/18 03:34:37;;;;;;;41.90;26.83;;;;;;;3.91;95.06;95560.28;4936673;29;20035;-72
2024/01/18 03:37:03;;;;;;;26.80;20.67;;;;;;;3.94;95.00;95559.75;4937696;29;20036;-71
2024/01/18 03:39:28;;;;;;;23.63;19.23;;;;;;;3.96;94.69;95564.81;4936385;29;20039;-72
2024/01/18 03:41:54;;;;;;;20.25;18.05;;;;;;;3.89;94.51;95566.94;4928912;29;20068;-70
2024/01/18 03:44:19;;;;;;;24.02;20.15;;;;;;;3.80;94.81;95579.19;4917325;29;20067;-70
2024/01/18 03:46:44;;;;;;;36.92;24.30;;;;;;;3.70;94.75;95574.66;4928095;29;20043;-71
2024/01/18 03:49:10;;;;;;;46.42;29.02;;;;;;;3.65;94.41;95545.38;4931481;29;20031;-70
2024/01/18 03:51:35;;;;;;;38.63;26.90;;;;;;;3.71;94.74;95554.94;4919458;29;20407;-71
2024/01/18 03:54:01;;;;;;;34.97;25.45;;;;;;;3.74;94.86;95554.44;4937574;29;20059;-71
2024/01/18 03:56:26;;;;;;;38.50;27.88;;;;;;;3.70;94.51;95557.88;4926200;29;20044;-71
2024/01/18 03:58:51;;;;;;;51.47;32.55;;;;;;;3.69;94.46;95549.09;4937189;29;20031;-70
2024/01/18 04:01:17;;;;;;;38.97;27.30;;;;;;;3.69;94.39;95541.13;4937399;29;20047;-71
2024/01/18 04:03:42;;;;;;;47.92;31.33;;;;;;;3.66;94.41;95541.66;4937282;29;20032;-71
2024/01/18 04:06:11;;;;;;;55.42;32.42;;;;;;;3.72;94.44;95561.88;4936967;29;20495;-71
2024/01/18 04:08:38;;;;;;;54.83;32.22;;;;;;;3.71;94.26;95568.25;4934443;29;20456;-70
2024/01/18 04:11:03;;;;;;;60.00;33.83;;;;;;;3.64;94.16;95569.59;4937340;29;20074;-70
2024/01/18 04:13:29;;;;;;;45.25;29.45;;;;;;;3.52;94.57;95566.38;4932565;29;20063;-70
2024/01/18 04:15:54;;;;;;;54.35;33.20;;;;;;;3.48;94.75;95563.44;4936663;29;20043;-71
2024/01/18 04:18:19;;;;;;;51.20;32.50;;;;;;;3.49;94.23;95567.72;4934635;29;20078;-70
2024/01/18 04:20:45;;;;;;;37.58;28.30;;;;;;;3.46;94.26;95573.56;4926901;29;20036;-70
2024/01/18 04:23:10;;;;;;;45.50;30.95;;;;;;;3.46;94.53;95578.88;4930872;29;20275;-71
2024/01/18 04:25:35;;;;;;;40.13;29.55;;;;;;;3.40;94.19;95579.94;4919140;29;20063;-71
2024/01/18 04:28:01;;;;;;;52.45;34.20;;;;;;;3.42;93.85;95585.78;4934228;29;20106;-70
2024/01/18 04:30:26;;;;;;;68.13;37.88;;;;;;;3.42;94.07;95588.44;4917137;29;20036;-71
2024/01/18 04:32:52;;;;;;;59.63;36.13;;;;;;;3.36;94.17;95600.16;4935037;29;20083;-71
2024/01/18 04:35:18;;;;;;;57.50;35.95;;;;;;;3.26;93.64;95590.28;4936112;29;20032;-72
2024/01/18 04:37:43;;;;;;;45.50;31.77;;;;;;;3.19;94.25;95588.94;4934800;29;20452;-72
2024/01/18 04:40:09;;;;;;;50.28;33.22;;;;;;;3.21;94.26;95602.75;4936146;29;20031;-72
2024/01/18 04:42:34;;;;;;;49.08;34.33;;;;;;;3.25;94.44;95606.47;4936328;29;20527;-72
2024/01/18 04:45:01;;;;;;;52.08;34.28;;;;;;;3.25;93.59;95609.94;4936016;29;20515;-72
2024/01/18 04:47:26;;;;;;;50.70;34.15;;;;;;;3.21;93.71;95608.88;4935732;29;20043;-72
2024/01/18 04:49:51;;;;;;;44.40;31.95;;;;;;;3.13;94.20;95619.22;4900280;29;20044;-71
2024/01/18 04:52:17;;;;;;;58.53;37.70;;;;;;;3.18;94.08;95611.25;4932178;29;20040;-71
2024/01/18 04:54:42;;;;;;;47.40;33.30;;;;;;;3.14;93.56;95628.78;4935812;29;20036;-71
2024/01/18 04:57:07;;;;;;;56.63;37.13;;;;;;;3.18;93.25;95619.22;4934646;29;20436;-71
2024/01/18 04:59:33;;;;;;;57.85;37.10;;;;;;;3.20;93.50;95620.56;4928663;29;20036;-71
2024/01/18 05:01:58;;;;;;;50.72;35.67;;;;;;;3.11;92.92;95618.66;4935829;29;20027;-72
2024/01/18 05:04:24;;;;;;;49.78;35.35;;;;;;;3.09;93.68;95628.78;4935207;29;20578;-72
2024/01/18 05:06:50;;;;;;;48.80;34.17;;;;;;;3.07;93.34;95636.22;4934429;29;20028;-71
2024/01/18 05:09:16;;;;;;;53.97;35.65;;;;;;;3.02;93.31;95641.50;4934932;29;20047;-71
2024/01/18 05:11:42;;;;;;;55.17;36.78;;;;;;;3.05;93.43;95643.66;4930969;29;20030;-70
2024/01/18 05:14:09;;;;;;;49.25;35.28;;;;;;;2.96;93.65;95630.06;4922985;29;20043;-71
2024/01/18 05:16:39;;;;;;;49.03;35.22;;;;;;;2.98;93.08;95640.44;4933775;29;20028;-70
2024/01/18 05:19:05;;;;;;;51.22;35.60;;;;;;;2.97;93.54;95633.50;4930389;29;20504;-70
2024/01/18 05:21:30;;;;;;;76.07;44.33;;;;;;;2.91;93.75;95619.41;4934404;29;20026;-69
2024/01/18 05:23:56;;;;;;;49.97;35.88;;;;;;;2.97;93.38;95612.22;4928666;29;20059;-70
2024/01/18 05:26:21;;;;;;;50.10;37.65;;;;;;;3.01;93.32;95608.03;4933547;29;20502;-71
2024/01/18 05:28:46;;;;;;;52.47;37.53;;;;;;;3.04;93.39;95610.13;4909433;29;20036;-70
2024/01/18 05:31:12;;;;;;;51.55;36.38;;;;;;;3.08;92.96;95608.56;4917597;29;20042;-71
2024/01/18 05:33:37;;;;;;;63.10;40.55;;;;;;;3.13;93.19;95611.22;4926032;29;20046;-71
2024/01/18 05:36:03;;;;;;;67.45;41.85;;;;;;;3.15;93.09;95598.50;4933719;29;20530;-70
2024/01/18 05:38:32;;;;;;;81.57;45.60;;;;;;;3.21;93.03;95602.75;4933355;29;20035;-70
2024/01/18 05:40:58;;;;;;;80.28;45.47;;;;;;;3.16;93.13;95594.75;4934755;29;20036;-70
2024/01/18 05:43:23;;;;;;;70.90;43.85;;;;;;;3.22;92.60;95620.31;4933461;29;20037;-70
2024/01/18 05:45:48;;;;;;;100.35;52.40;;;;;;;3.22;93.21;95618.44;4934772;29;20032;-70
2024/01/18 05:48:14;;;;;;;75.97;43.15;;;;;;;3.26;92.96;95605.44;4929759;29;20044;-70
2024/01/18 05:50:39;;;;;;;76.28;46.00;;;;;;;3.28;92.71;95604.13;4931978;29;20038;-70
2024/01/18 05:53:05;;;;;;;85.55;45.40;;;;;;;3.26;92.97;95610.75;4926137;29;20092;-70
2024/01/18 05:55:30;;;;;;;87.03;45.60;;;;;;;3.21;92.80;95624.03;4922432;29;20027;-71
2024/01/18 05:57:55;;;;;;;74.20;43.03;;;;;;;3.14;92.74;95623.47;4960930;23;20126;-73
2024/01/18 06:00:21;;;;;;;76.60;42.47;;;;;;;3.03;92.88;95616.53;4932152;29;20031;-74
2024/01/18 06:02:46;;;;;;;92.90;46.83;;;;;;;2.99;92.72;95615.47;4940385;29;20039;-73
2024/01/18 06:05:12;;;;;;;100.10;48.72;;;;;;;2.94;92.44;95604.81;4941774;29;20054;-73
2024/01/18 06:07:37;;;;;;;118.25;53.58;;;;;;;2.98;92.82;95632.44;4935044;29;20048;-74
2024/01/18 06:10:04;;;;;;;201.05;66.45;;;;;;;3.06;92.80;95637.25;4923730;29;20027;-74
2024/01/18 06:12:29;;;;;;;257.35;75.70;;;;;;;3.08;92.38;95637.81;4926639;29;20521;-72
2024/01/18 06:14:55;;;;;;;109.45;52.65;;;;;;;2.90;92.85;95635.59;4934775;29;20023;-76
2024/01/18 06:17:20;;;;;;;106.43;55.67;;;;;;;2.79;93.08;95626.78;4936819;29;20052;-73
2024/01/18 06:19:45;;;;;;;81.03;48.22;;;;;;;2.98;92.81;95643.09;4932343;29;20148;-73
2024/01/18 06:22:11;;;;;;;149.95;63.63;;;;;;;3.01;92.77;95642.56;4923590;29;20052;-73
2024/01/18 06:24:36;;;;;;;169.68;68.72;;;;;;;2.97;93.00;95628.19;4932574;29;20388;-74
2024/01/18 06:27:01;;;;;;;115.53;55.25;;;;;;;3.01;93.33;95619.44;4930547;29;20048;-74
2024/01/18 06:29:30;;;;;;;111.35;51.35;;;;;;;2.92;92.96;95604.28;4932467;29;20031;-74
2024/01/18 06:31:55;;;;;;;75.10;43.90;;;;;;;2.90;93.18;95590.41;4927535;29;20032;-74
2024/01/18 06:34:21;;;;;;;79.13;45.60;;;;;;;3.00;93.04;95611.72;4933149;29;20050;-74
2024/01/18 06:36:46;;;;;;;62.97;38.50;;;;;;;2.95;92.94;95611.69;4929649;29;20110;-74
2024/01/18 06:39:11;;;;;;;63.33;40.33;;;;;;;2.83;93.29;95595.16;4927962;29;20020;-74
2024/01/18 06:41:37;;;;;;;52.15;35.38;;;;;;;2.97;93.03;95615.69;4925169;29;20032;-74
2024/01/18 06:44:02;;;;;;;42.35;31.73;;;;;;;2.83;93.39;95595.16;4933224;29;20471;-74
2024/01/18 06:46:28;;;;;;;41.30;32.20;;;;;;;2.94;93.34;95608.22;4924881;29;20036;-75
2024/01/18 06:48:54;;;;;;;38.88;31.13;;;;;;;3.03;93.05;95621.84;4909971;29;20039;-75
2024/01/18 06:51:23;;;;;;;27.23;24.27;;;;;;;2.93;93.25;95605.84;4930974;29;20051;-74
2024/01/18 06:53:48;;;;;;;27.15;24.13;;;;;;;3.00;93.02;95638.31;4905993;29;20476;-74
2024/01/18 06:56:14;;;;;;;29.85;26.35;;;;;;;2.96;93.11;95632.72;4928988;29;20039;-76
2024/01/18 06:58:40;;;;;;;27.70;23.50;;;;;;;2.98;93.04;95661.69;4916834;29;20520;-74
2024/01/18 07:01:06;;;;;;;27.48;24.58;;;;;;;2.99;93.58;95669.41;4922758;29;20455;-74
2024/01/18 07:03:31;;;;;;;23.70;21.33;;;;;;;2.92;92.89;95668.06;4930559;29;20103;-73
2024/01/18 07:05:57;;;;;;;22.20;20.17;;;;;;;2.85;93.03;95659.50;4928951;29;20118;-73
2024/01/18 07:08:23;;;;;;;24.27;21.80;;;;;;;2.92;92.93;95679.47;4924456;29;20034;-73
2024/01/18 07:10:48;;;;;;;27.05;24.23;;;;;;;2.91;93.03;95683.19;4929845;29;20042;-75
2024/01/18 07:13:14;;;;;;;22.08;20.08;;;;;;;2.75;92.54;95653.06;4916329;29;20709;-75
2024/01/18 07:15:39;;;;;;;25.17;22.67;;;;;;;2.89;92.63;95684.50;4925335;29;20043;-76
2024/01/18 07:18:05;;;;;;;23.73;21.58;;;;;;;2.76;92.73;95675.94;4908415;29;20036;-73
2024/01/18 07:20:30;;;;;;;23.77;21.67;;;;;;;2.70;93.06;95674.31;4925756;29;20039;-73
2024/01/18 07:22:56;;;;;;;26.88;24.27;;;;;;;2.84;92.57;95697.75;4921030;29;20620;-72
2024/01/18 07:25:21;;;;;;;24.58;22.08;;;;;;;2.76;92.56;95697.19;4930891;29;20036;-74
2024/01/18 07:27:47;;;;;;;25.42;22.95;;;;;;;2.64;92.80;95677.97;4933096;29;20095;-73
2024/01/18 07:30:14;;;;;;;27.30;24.48;;;;;;;2.65;92.65;95671.63;4929046;29;20036;-73
2024/01/18 07:32:40;;;;;;;30.65;26.52;;;;;;;2.70;92.39;95692.91;4923520;29;20519;-75
2024/01/18 07:35:05;;;;;;;27.55;24.75;;;;;;;2.62;92.34;95685.41;4908779;29;20040;-74
2024/01/18 07:37:31;;;;;;;30.95;26.00;;;;;;;2.66;92.39;95691.81;4921075;29;20403;-73
2024/01/18 07:39:56;;;;;;;26.55;23.85;;;;;;;2.49;92.33;95675.25;4922723;29;20464;-75
2024/01/18 07:42:21;;;;;;;29.88;26.52;;;;;;;2.65;92.22;95690.22;4926404;29;20449;-74
2024/01/18 07:44:47;;;;;;;26.73;23.75;;;;;;;2.45;93.09;95684.75;4933776;29;20051;-74
2024/01/18 07:47:13;;;;;;;26.83;23.92;;;;;;;2.45;92.52;95684.75;4919583;29;20106;-74
2024/01/18 07:49:45;;;;;;;35.35;27.17;;;;;;;2.39;92.79;95679.66;4928030;29;20036;-74
2024/01/18 07:52:12;;;;;;;27.55;24.40;;;;;;;2.40;92.69;95674.13;4929839;29;20173;-74
2024/01/18 07:54:37;;;;;;;26.75;23.95;;;;;;;2.47;92.15;95695.94;4933913;28;20027;-73
2024/01/18 07:57:03;;;;;;;28.10;25.20;;;;;;;2.37;92.03;95671.97;4935957;29;20066;-74
2024/01/18 07:59:29;;;;;;;25.92;23.13;;;;;;;2.41;92.46;95691.63;4917810;29;20055;-74
2024/01/18 08:01:54;;;;;;;27.42;24.52;;;;;;;2.40;92.52;95698.00;4936012;29;20039;-74
2024/01/18 08:04:19;;;;;;;27.13;24.17;;;;;;;2.43;91.85;95708.09;4930283;29;20035;-73
2024/01/18 08:06:45;;;;;;;26.23;23.52;;;;;;;2.44;92.27;95699.09;4929964;29;20076;-74
2024/01/18 08:09:13;;;;;;;33.45;26.92;;;;;;;2.40;92.00;95708.63;4917378;29;20028;-73
2024/01/18 08:11:39;;;;;;;27.40;24.50;;;;;;;2.41;92.03;95715.53;4918429;29;20562;-74
2024/01/18 08:14:04;;;;;;;27.75;24.75;;;;;;;2.25;92.17;95697.88;4932550;29;20056;-74
2024/01/18 08:16:29;;;;;;;33.63;28.27;;;;;;;2.25;92.13;95699.72;4901937;29;20039;-74
2024/01/18 08:18:55;;;;;;;32.20;26.85;;;;;;;2.25;91.71;95695.22;4936754;29;20028;-74
2024/01/18 08:21:21;;;;;;;33.63;28.77;;;;;;;2.24;91.76;95704.22;4935549;29;20109;-73
2024/01/18 08:23:47;;;;;;;39.08;30.38;;;;;;;2.23;91.78;95697.34;4935327;29;20038;-74
2024/01/18 08:26:13;;;;;;;40.03;31.42;;;;;;;2.33;92.17;95710.69;4934951;29;20032;-74
2024/01/18 08:28:38;;;;;;;39.47;30.63;;;;;;;2.34;91.76;95717.59;4929821;29;20502;-74
2024/01/18 08:31:03;;;;;;;28.02;24.90;;;;;;;2.42;91.48;95733.09;4938924;29;20476;-74
2024/01/18 08:33:29;;;;;;;28.63;25.30;;;;;;;2.43;91.53;95733.84;4919351;29;20388;-74
2024/01/18 08:35:54;;;;;;;25.63;22.90;;;;;;;2.37;91.53;95730.38;4904457;29;20036;-74
2024/01/18 08:38:22;;;;;;;21.42;19.23;;;;;;;2.33;91.47;95745.22;4931722;29;20367;-74
2024/01/18 08:40:48;;;;;;;20.13;18.13;;;;;;;2.32;91.09;95748.13;4911646;29;20032;-74
2024/01/18 08:43:13;;;;;;;17.80;16.08;;;;;;;2.21;91.75;95747.22;4933291;29;20038;-73
2024/01/18 08:45:41;;;;;;;16.73;15.13;;;;;;;2.09;91.06;95743.94;4909857;29;20040;-73
2024/01/18 08:48:07;;;;;;;17.60;15.73;;;;;;;2.10;91.61;95750.84;4916117;29;20119;-73
2024/01/18 08:50:32;;;;;;;19.75;17.80;;;;;;;2.19;90.37;95752.00;4917824;29;20559;-73
2024/01/18 08:52:57;;;;;;;19.40;17.40;;;;;;;2.05;90.95;95742.84;4938389;29;20101;-73
2024/01/18 08:55:23;;;;;;;19.20;17.17;;;;;;;2.01;91.34;95762.94;4933329;29;20114;-73
2024/01/18 08:57:49;;;;;;;20.75;18.52;;;;;;;2.09;90.33;95759.84;4927044;29;20039;-73
2024/01/18 09:00:17;;;;;;;23.23;19.27;;;;;;;1.93;90.23;95744.84;4945009;29;20081;-73
2024/01/18 09:02:44;;;;;;;21.02;18.75;;;;;;;2.02;90.31;95753.94;4936777;28;20388;-73
2024/01/18 09:05:09;;;;;;;20.73;18.55;;;;;;;1.95;90.40;95756.00;4927426;29;20044;-73
2024/01/18 09:07:35;;;;;;;19.00;17.17;;;;;;;1.81;90.49;95768.88;4923956;29;20039;-73
2024/01/18 09:10:00;;;;;;;19.05;17.15;;;;;;;1.78;89.66;95761.38;4932490;29;20039;-73
2024/01/18 09:12:26;;;;;;;20.10;17.98;;;;;;;1.79;90.06;95780.78;4942682;29;20027;-73
2024/01/18 09:14:52;;;;;;;20.42;18.13;;;;;;;1.60;89.75;95763.56;4914395;29;20059;-73
2024/01/18 09:17:17;;;;;;;20.65;18.45;;;;;;;1.61;89.99;95789.06;4934618;29;20046;-73
2024/01/18 09:19:43;;;;;;;37.05;25.67;;;;;;;1.64;89.62;95783.22;4941580;29;20047;-73
2024/01/18 09:22:09;;;;;;;28.73;22.95;;;;;;;1.65;90.00;95769.75;4941523;29;20035;-72
2024/01/18 09:24:35;;;;;;;29.15;22.60;;;;;;;1.65;89.00;95768.94;4927148;29;20043;-73
2024/01/18 09:27:00;;;;;;;18.98;16.45;;;;;;;1.69;88.88;95770.84;4924970;29;20031;-73
2024/01/18 09:29:26;;;;;;;21.85;17.67;;;;;;;1.80;89.10;95785.00;4927875;29;20044;-72
2024/01/18 09:31:51;;;;;;;15.77;14.10;;;;;;;1.76;88.91;95775.94;4939165;29;20058;-73
2024/01/18 09:34:17;;;;;;;14.90;13.40;;;;;;;1.72;88.98;95796.06;4937309;29;20082;-73
2024/01/18 09:36:42;;;;;;;14.25;12.93;;;;;;;1.68;87.50;95795.75;4921062;28;20136;-73
2024/01/18 09:39:15;;;;;;;13.65;12.25;;;;;;;1.67;87.59;95798.66;4899352;29;20051;-73
2024/01/18 09:41:48;;;;;;;12.52;11.43;;;;;;;1.62;87.24;95795.94;4928486;29;20492;-73
2024/01/18 09:44:13;;;;;;;13.85;12.02;;;;;;;1.56;86.91;95802.25;4915479;29;20562;-73
2024/01/18 09:46:40;;;;;;;13.52;12.18;;;;;;;1.60;86.99;95798.03;4901702;29;20024;-73
2024/01/18 09:49:08;;;;;;;14.43;13.02;;;;;;;1.54;87.43;95822.91;4924899;29;20050;-72
2024/01/18 09:51:34;;;;;;;12.68;11.38;;;;;;;1.61;87.07;95818.22;4934644;29;20032;-73
2024/01/18 09:54:00;;;;;;;13.25;11.90;;;;;;;1.59;87.10;95817.69;4928151;29;20090;-71
2024/01/18 09:56:27;;;;;;;13.10;11.65;;;;;;;1.54;86.30;95828.22;4922571;29;20623;-73
2024/01/18 09:58:54;;;;;;;14.50;13.00;;;;;;;1.37;86.82;95825.59;4930241;29;20118;-73
2024/01/18 10:01:21;;;;;;;17.58;12.65;;;;;;;1.28;86.49;95827.84;4935540;28;20070;-73
2024/01/18 10:03:48;;;;;;;14.45;12.93;;;;;;;1.30;86.71;95824.97;4941790;29;20043;-73
2024/01/18 10:06:15;;;;;;;14.27;12.63;;;;;;;1.50;86.86;95850.94;4914774;29;20051;-73
2024/01/18 10:08:40;;;;;;;16.40;14.77;;;;;;;1.49;86.30;95855.47;4922117;29;20040;-73
2024/01/18 10:11:06;;;;;;;23.58;21.17;;;;;;;1.46;86.59;95834.75;4928935;29;20031;-73
2024/01/18 10:13:53;;;;;;;30.77;27.67;;;;;;;1.60;85.74;95840.47;4940333;29;20039;-73
2024/01/18 10:16:28;;;;;;;28.42;25.52;;;;;;;1.77;85.73;95849.19;4923375;29;20036;-73
2024/01/18 10:19:00;;;;;;;16.25;14.73;;;;;;;1.79;85.34;95839.13;4924646;29;20117;-73
2024/01/18 10:21:26;;;;;;;15.68;14.05;;;;;;;1.90;85.68;95856.78;4914626;29;20442;-73
2024/01/18 10:23:53;;;;;;;14.73;13.13;;;;;;;1.95;85.40;95856.84;4926275;29;20110;-73
2024/01/18 10:26:19;;;;;;;15.50;13.90;;;;;;;1.96;84.97;95845.19;4919420;29;20048;-73
2024/01/18 10:28:44;;;;;;;14.55;13.15;;;;;;;1.94;85.37;95841.97;4913980;29;20036;-73
2024/01/18 10:31:09;;;;;;;15.02;13.50;;;;;;;2.00;85.38;95855.06;4917245;29;20623;-73
2024/01/18 10:33:35;;;;;;;18.55;15.57;;;;;;;1.89;85.07;95852.53;4920128;29;20035;-73
2024/01/18 10:36:01;;;;;;;16.02;14.43;;;;;;;1.83;84.98;95842.91;4932254;29;20563;-73
2024/01/18 10:38:30;;;;;;;19.48;16.50;;;;;;;1.98;84.79;95862.44;4931755;29;20028;-73
2024/01/18 10:40:57;;;;;;;21.45;17.75;;;;;;;1.87;85.04;95862.56;4944560;29;20575;-73
2024/01/18 10:43:22;;;;;;;19.80;17.20;;;;;;;1.90;84.24;95878.81;4902089;29;20392;-73
2024/01/18 10:45:48;;;;;;;16.83;14.48;;;;;;;1.80;84.83;95878.69;4921550;29;20051;-73
2024/01/18 10:48:13;;;;;;;17.08;14.52;;;;;;;1.74;84.61;95882.31;4938335;29;20377;-73
2024/01/18 10:50:39;;;;;;;14.63;12.82;;;;;;;1.74;84.78;95892.13;4931223;29;20135;-73
2024/01/18 10:53:04;;;;;;;15.13;12.95;;;;;;;1.66;84.49;95908.47;4932415;29;20032;-73
2024/01/18 10:55:30;;;;;;;13.27;11.88;;;;;;;1.59;83.81;95929.06;4924518;29;20028;-73
2024/01/18 10:57:55;;;;;;;13.50;12.10;;;;;;;1.49;83.65;95928.91;4943158;28;20114;-73
2024/01/18 11:00:21;;;;;;;13.65;12.20;;;;;;;1.40;83.82;95910.75;4925727;29;20040;-72
2024/01/18 11:02:46;;;;;;;14.23;12.80;;;;;;;1.46;83.33;95913.47;4927496;29;20035;-73
2024/01/18 11:05:21;;;;;;;13.95;12.25;;;;;;;1.50;83.14;95925.19;4931534;29;20481;-73
2024/01/18 11:07:47;;;;;;;14.52;12.35;;;;;;;1.64;83.06;95939.72;4923903;29;20143;-73
2024/01/18 11:10:12;;;;;;;15.50;13.65;;;;;;;1.68;83.85;95948.81;4934853;28;20487;-73
2024/01/18 11:12:43;;;;;;;16.23;14.48;;;;;;;1.62;83.78;95933.88;4926435;29;20036;-73
2024/01/18 11:15:13;;;;;;;17.05;14.95;;;;;;;1.73;83.89;95946.22;4925497;29;20043;-73
2024/01/18 11:17:51;;;;;;;17.00;14.82;;;;;;;1.55;83.73;95933.22;4930632;29;20404;-73